Truman, Minnesota
Current Conditions -  °F | °C
As of 1:55 PM on Wednesday 17 Dec 2014 (Local Time) from KJYG Reporting Station
Clear Clear  
Wind Chill:   Ceiling: Unl
Heat Index: 18°   Visibility: 10mi
Dew Point: 12°   Wind: 8mph
Humidity: 79%   Direction: 280°W
Pressure: 30.3"   Gusts: NA
Location:  43.83°N, 94.44°W
Report Text: KJYG 171955Z AUTO 28007KT 10SM CLR M08/M11 A3030 RMK AO2
Loading
Personal Weather Stations






























Interactive Weather Map New forecast layout! Learn more

10-Day Weather Forecast

Advertisements
Track Severe Weather on mobile